Time;durP1;ratioP1;P1;durP2;ratioP2;P2;SDS_P1;SDS_P2;PMS_P1;PMS_P2;Temp;Humidity;BMP_temperature;BMP_pressure;BME280_temperature;BME280_humidity;BME280_pressure;Samples;Min_cycle;Max_cycle;Signal;HPM_P1;HPM_P2
2022/01/05 00:01:15;;;;;;;6.37;2.43;;;;;;;3.73;85.06;99001.56;5032248;28;20202;-77
2022/01/05 00:03:43;;;;;;;6.37;2.70;;;;;;;3.75;85.39;98999.81;5035660;28;20209;-77
2022/01/05 00:06:09;;;;;;;2.73;2.40;;;;;;;3.75;85.92;98987.75;5033282;28;20225;-78
2022/01/05 00:08:36;;;;;;;5.80;3.17;;;;;;;3.74;85.86;98975.69;5033215;28;20206;-79
2022/01/05 00:11:02;;;;;;;6.63;2.70;;;;;;;3.69;86.19;98964.63;5032532;28;20677;-78
2022/01/05 00:13:29;;;;;;;5.30;2.63;;;;;;;3.81;86.55;98955.84;5032640;28;20308;-79
2022/01/05 00:15:56;;;;;;;4.47;2.60;;;;;;;3.64;86.40;98965.56;5033028;28;20757;-79
2022/01/05 00:18:23;;;;;;;3.30;2.57;;;;;;;3.60;86.52;98962.16;5032647;28;20687;-78
2022/01/05 00:20:51;;;;;;;2.83;2.60;;;;;;;3.73;86.34;98968.84;5032667;28;20210;-78
2022/01/05 00:23:17;;;;;;;5.90;2.07;;;;;;;3.78;86.03;98982.53;5032655;28;20234;-78
2022/01/05 00:25:43;;;;;;;4.27;2.80;;;;;;;3.83;85.48;98981.63;5032463;28;20770;-79
2022/01/05 00:28:10;;;;;;;3.77;1.70;;;;;;;3.82;84.97;98996.25;5032959;28;20269;-77
2022/01/05 00:30:36;;;;;;;4.70;1.80;;;;;;;3.92;84.82;98999.53;5031686;28;20614;-79
2022/01/05 00:33:04;;;;;;;6.23;1.87;;;;;;;3.98;84.87;98999.44;5035046;28;20303;-79
2022/01/05 00:35:30;;;;;;;4.73;1.93;;;;;;;3.91;84.09;99013.34;5032800;28;20199;-79
2022/01/05 00:37:57;;;;;;;3.47;1.60;;;;;;;3.98;84.50;99015.81;5032584;28;20202;-78
2022/01/05 00:40:23;;;;;;;5.63;1.47;;;;;;;3.92;84.82;99015.03;5037284;28;20256;-77
2022/01/05 00:42:49;;;;;;;3.07;1.93;;;;;;;3.75;84.65;99017.88;5039391;28;20304;-78
2022/01/05 00:45:16;;;;;;;4.47;2.10;;;;;;;3.70;84.98;99011.91;5053992;28;20248;-77
2022/01/05 00:47:43;;;;;;;7.13;1.80;;;;;;;3.61;84.90;99014.59;5037995;28;20213;-78
2022/01/05 00:50:10;;;;;;;5.77;1.60;;;;;;;3.67;84.72;99010.22;5047358;28;20245;-77
2022/01/05 00:52:37;;;;;;;4.20;1.60;;;;;;;3.70;84.89;99017.91;5032405;28;20719;-78
2022/01/05 00:55:04;;;;;;;5.23;1.60;;;;;;;3.73;84.76;99022.19;5032311;28;20209;-79
2022/01/05 00:57:31;;;;;;;4.97;1.50;;;;;;;3.57;84.53;99024.13;5032700;28;20667;-78
2022/01/05 00:59:59;;;;;;;4.53;2.00;;;;;;;3.64;84.44;99024.91;5017337;28;20203;-78
2022/01/05 01:02:25;;;;;;;4.73;2.03;;;;;;;3.74;85.11;99014.41;5021196;28;20276;-79
2022/01/05 01:04:51;;;;;;;6.27;1.90;;;;;;;3.67;84.93;99022.28;5031174;28;20276;-79
2022/01/05 01:07:19;;;;;;;4.37;1.70;;;;;;;3.50;85.71;99005.28;5032207;28;20217;-78
2022/01/05 01:09:45;;;;;;;6.13;1.67;;;;;;;3.39;86.37;99007.19;5031619;28;20260;-78
2022/01/05 01:12:12;;;;;;;6.47;2.43;;;;;;;3.37;87.44;98983.97;5031948;28;20222;-77
2022/01/05 01:14:39;;;;;;;3.90;2.10;;;;;;;3.23;87.83;98956.66;5031848;28;20588;-79
2022/01/05 01:17:05;;;;;;;6.97;2.17;;;;;;;3.24;88.27;98955.78;5031584;28;20210;-79
2022/01/05 01:19:32;;;;;;;5.03;1.80;;;;;;;3.19;88.39;98942.94;5031634;28;20668;-78
2022/01/05 01:21:58;;;;;;;5.00;2.40;;;;;;;3.18;88.47;98931.78;5031759;28;20226;-78
2022/01/05 01:24:26;;;;;;;5.73;2.20;;;;;;;3.18;88.13;98928.38;5032183;28;20581;-78
2022/01/05 01:26:53;;;;;;;5.40;2.33;;;;;;;3.29;88.58;98907.56;5031731;28;20620;-79
2022/01/05 01:29:19;;;;;;;8.70;2.30;;;;;;;3.24;88.63;98920.53;5031669;28;20260;-77
2022/01/05 01:31:47;;;;;;;7.53;1.80;;;;;;;3.26;88.00;98920.53;5031924;28;20272;-79
2022/01/05 01:34:14;;;;;;;6.27;2.20;;;;;;;3.23;87.89;98946.34;5032820;28;20206;-77
2022/01/05 01:36:40;;;;;;;5.50;2.17;;;;;;;3.24;87.95;98937.75;5031953;28;20239;-77
2022/01/05 01:39:06;;;;;;;5.20;2.17;;;;;;;3.20;88.04;98936.09;5031610;28;20259;-77
2022/01/05 01:41:34;;;;;;;8.17;2.53;;;;;;;3.16;87.80;98941.28;5031493;28;20210;-78
2022/01/05 01:44:01;;;;;;;5.83;2.40;;;;;;;3.20;87.67;98938.66;5031868;28;20269;-77
2022/01/05 01:46:27;;;;;;;4.90;2.27;;;;;;;3.28;87.67;98949.72;5031541;28;20230;-78
2022/01/05 01:48:54;;;;;;;7.33;2.13;;;;;;;3.36;87.45;98953.88;5030762;28;20630;-75
2022/01/05 01:51:20;;;;;;;5.10;2.30;;;;;;;3.25;86.08;98976.41;5031474;28;20300;-78
2022/01/05 01:53:47;;;;;;;5.97;2.17;;;;;;;3.28;86.12;98976.34;5031398;28;20210;-78
2022/01/05 01:56:14;;;;;;;7.87;2.57;;;;;;;3.33;85.86;98989.19;5031789;28;20298;-78
2022/01/05 01:58:44;;;;;;;5.47;1.90;;;;;;;3.31;85.36;98996.97;5031479;28;20202;-79
2022/01/05 02:01:10;;;;;;;6.37;2.33;;;;;;;3.34;85.79;99011.53;5031019;28;20202;-79
2022/01/05 02:03:36;;;;;;;10.43;2.00;;;;;;;3.44;84.19;99032.91;5033674;28;20229;-79
2022/01/05 02:06:03;;;;;;;8.97;2.30;;;;;;;3.43;84.20;99044.06;5031606;28;20229;-78
2022/01/05 02:08:29;;;;;;;6.93;1.83;;;;;;;3.46;84.13;99042.31;5031433;28;20202;-78
2022/01/05 02:10:56;;;;;;;6.50;2.40;;;;;;;3.50;83.96;99049.16;5030947;28;20665;-78
2022/01/05 02:13:22;;;;;;;4.83;2.10;;;;;;;3.54;84.06;99047.38;5031245;28;20227;-79
2022/01/05 02:15:51;;;;;;;4.00;2.07;;;;;;;3.60;83.98;99052.47;5031549;28;20669;-78
2022/01/05 02:21:05;;;;;;;5.43;2.50;;;;;;;3.35;84.51;99032.16;5035590;28;20200;-79
2022/01/05 02:23:32;;;;;;;5.63;2.13;;;;;;;3.46;85.31;99028.56;5035481;28;20232;-78
2022/01/05 02:25:58;;;;;;;7.60;2.40;;;;;;;3.51;85.08;99013.91;5035275;28;20576;-79
2022/01/05 02:28:25;;;;;;;9.10;2.60;;;;;;;3.57;84.87;99017.25;5035267;28;20202;-78
2022/01/05 02:30:53;;;;;;;6.83;2.90;;;;;;;3.54;84.83;99021.59;5034024;28;20202;-79
2022/01/05 02:33:19;;;;;;;6.70;2.83;;;;;;;3.61;84.72;99019.75;5037095;28;20238;-78
2022/01/05 02:35:46;;;;;;;4.63;2.80;;;;;;;3.53;84.65;99017.31;5034622;28;20195;-79
2022/01/05 02:38:17;;;;;;;9.50;3.40;;;;;;;3.53;85.61;99019.91;5034967;28;20332;-79
2022/01/05 02:40:44;;;;;;;7.33;3.07;;;;;;;3.61;85.13;99012.91;5034431;28;20631;-77
2022/01/05 02:43:10;;;;;;;5.17;2.90;;;;;;;3.62;85.15;99016.31;5034866;28;20226;-78
2022/01/05 02:45:37;;;;;;;5.70;2.60;;;;;;;3.57;85.51;98994.03;5034231;28;20226;-78
2022/01/05 02:48:04;;;;;;;5.50;2.70;;;;;;;3.50;84.60;98994.97;5014903;28;20233;-78
2022/01/05 02:50:31;;;;;;;5.47;2.17;;;;;;;3.41;85.13;98995.13;5014357;28;20207;-78
2022/01/05 02:52:57;;;;;;;5.17;2.10;;;;;;;3.29;85.12;99001.28;5019817;28;20248;-77
2022/01/05 02:55:25;;;;;;;5.93;2.30;;;;;;;3.37;85.18;98998.63;5024574;28;20207;-78
2022/01/05 02:57:51;;;;;;;11.47;2.70;;;;;;;3.43;85.33;98995.06;5023419;28;20207;-78
2022/01/05 03:00:18;;;;;;;6.80;2.27;;;;;;;3.29;85.55;99000.41;5024018;28;20199;-77
2022/01/05 03:02:45;;;;;;;4.97;2.23;;;;;;;3.26;85.60;99001.31;5026203;28;20272;-77
2022/01/05 03:05:12;;;;;;;8.83;2.30;;;;;;;3.28;85.42;99003.88;5027558;28;20218;-78
2022/01/05 03:07:39;;;;;;;7.47;2.80;;;;;;;3.32;85.09;99011.53;5023348;28;20198;-78
2022/01/05 03:10:07;;;;;;;6.57;2.57;;;;;;;3.28;84.76;99011.63;5023461;28;20207;-77
2022/01/05 03:12:34;;;;;;;6.93;2.53;;;;;;;3.21;84.91;99016.00;5024703;28;20284;-78
2022/01/05 03:15:01;;;;;;;8.17;2.60;;;;;;;3.26;84.30;99026.25;5024031;28;20249;-78
2022/01/05 03:17:27;;;;;;;4.57;2.23;;;;;;;3.25;84.40;99034.84;5022680;28;20665;-78
2022/01/05 03:19:55;;;;;;;3.93;1.90;;;;;;;3.15;84.24;99045.28;5024898;28;20245;-78
2022/01/05 03:22:22;;;;;;;5.87;2.47;;;;;;;3.15;84.37;99049.56;5023391;28;20640;-78
2022/01/05 03:24:48;;;;;;;8.40;2.83;;;;;;;3.19;84.53;99048.66;5025685;28;20221;-79
2022/01/05 03:27:15;;;;;;;3.73;1.97;;;;;;;3.00;84.75;99047.19;5022768;28;20222;-79
2022/01/05 03:29:42;;;;;;;5.87;1.80;;;;;;;2.87;84.70;99038.72;5024342;28;20684;-79
2022/01/05 03:32:09;;;;;;;7.13;3.50;;;;;;;2.92;84.80;99034.38;5026435;28;20230;-79
2022/01/05 03:34:37;;;;;;;6.27;1.90;;;;;;;2.86;85.69;99032.72;5026534;28;20206;-78
2022/01/05 03:37:04;;;;;;;5.93;2.23;;;;;;;2.83;85.15;99025.00;5024673;28;20832;-78
2022/01/05 03:39:30;;;;;;;5.13;2.33;;;;;;;2.88;85.20;99032.69;5024408;28;20248;-79
2022/01/05 03:41:57;;;;;;;10.90;3.13;;;;;;;2.90;85.19;99026.66;5022113;28;20222;-78
2022/01/05 03:44:23;;;;;;;8.63;2.70;;;;;;;2.98;84.93;99036.88;5022877;28;20198;-79
2022/01/05 03:46:51;;;;;;;4.00;2.20;;;;;;;3.00;84.31;99052.34;5022436;28;20280;-78
2022/01/05 03:49:18;;;;;;;6.17;2.97;;;;;;;3.02;84.61;99058.31;5023840;28;20202;-79
2022/01/05 03:51:45;;;;;;;7.00;2.50;;;;;;;3.00;84.47;99068.66;5024342;28;20280;-79
2022/01/05 03:54:12;;;;;;;6.10;2.80;;;;;;;2.95;83.95;99081.59;5024357;28;20234;-80
2022/01/05 03:56:38;;;;;;;6.97;2.53;;;;;;;3.06;84.28;99084.03;5023488;28;20242;-79
2022/01/05 03:59:04;;;;;;;9.50;2.97;;;;;;;3.13;83.66;99089.97;5026944;28;20203;-78
2022/01/05 04:01:31;;;;;;;4.90;2.33;;;;;;;3.03;82.36;99116.72;5023139;28;20206;-79
2022/01/05 04:03:58;;;;;;;7.03;2.77;;;;;;;3.03;83.06;99117.56;5028808;28;20257;-78
2022/01/05 04:06:25;;;;;;;9.57;2.37;;;;;;;3.14;83.24;99122.63;5023611;28;20222;-78
2022/01/05 04:08:51;;;;;;;3.97;2.23;;;;;;;3.17;82.89;99122.59;5025462;28;20252;-79
2022/01/05 04:11:17;;;;;;;7.87;2.10;;;;;;;3.05;81.94;99140.75;5024041;28;20195;-79
2022/01/05 04:13:44;;;;;;;6.13;2.57;;;;;;;3.05;82.32;99145.91;5025106;28;20211;-78
2022/01/05 04:16:10;;;;;;;7.17;1.97;;;;;;;3.07;82.27;99150.22;5024899;28;20204;-79
2022/01/05 04:18:37;;;;;;;3.93;1.63;;;;;;;3.01;82.27;99147.66;5022075;28;20276;-80
2022/01/05 04:21:04;;;;;;;6.77;2.00;;;;;;;3.07;81.83;99147.63;5025466;28;20819;-80
2022/01/05 04:23:31;;;;;;;6.10;2.03;;;;;;;3.02;81.85;99158.84;5034307;28;20292;-79
2022/01/05 04:25:57;;;;;;;5.83;2.87;;;;;;;2.98;82.29;99158.88;5025415;28;20373;-79
2022/01/05 04:28:23;;;;;;;5.73;3.10;;;;;;;3.04;82.71;99151.97;5014827;28;20265;-78
2022/01/05 04:30:50;;;;;;;5.73;2.20;;;;;;;3.10;82.22;99137.28;5013840;28;20257;-78
2022/01/05 04:33:16;;;;;;;4.40;2.20;;;;;;;3.09;80.16;99165.66;5030506;28;20233;-79
2022/01/05 04:35:42;;;;;;;5.93;2.03;;;;;;;3.11;80.51;99193.16;5033949;28;20202;-78
2022/01/05 04:38:10;;;;;;;4.53;1.87;;;;;;;3.07;80.24;99183.72;5034066;28;20206;-79
2022/01/05 04:40:36;;;;;;;3.40;1.70;;;;;;;2.91;81.31;99164.09;5033570;28;20202;-79
2022/01/05 04:43:03;;;;;;;5.33;1.77;;;;;;;2.91;81.08;99187.28;5032705;28;20709;-80
2022/01/05 04:45:29;;;;;;;3.73;1.43;;;;;;;2.77;81.79;99183.13;5026215;28;20257;-78
2022/01/05 04:47:56;;;;;;;5.27;1.87;;;;;;;2.81;81.67;99172.75;5033299;28;20297;-80
2022/01/05 04:50:22;;;;;;;5.10;2.03;;;;;;;2.82;81.78;99174.50;5033357;28;20202;-79
2022/01/05 04:52:49;;;;;;;3.83;1.83;;;;;;;2.80;82.56;99177.06;5033663;28;20704;-78
2022/01/05 04:55:16;;;;;;;5.63;2.03;;;;;;;2.72;81.52;99179.69;5033370;28;20268;-77
2022/01/05 04:57:44;;;;;;;2.77;1.47;;;;;;;2.71;81.68;99185.72;5027995;28;20198;-79
2022/01/05 05:00:11;;;;;;;4.10;2.03;;;;;;;2.67;81.91;99194.31;5032701;28;20582;-77
2022/01/05 05:02:37;;;;;;;4.20;1.60;;;;;;;2.58;82.01;99182.38;5040748;28;20282;-78
2022/01/05 05:05:04;;;;;;;7.03;1.90;;;;;;;2.66;82.04;99190.06;5035334;28;20202;-77
2022/01/05 05:07:30;;;;;;;3.57;1.30;;;;;;;2.65;81.50;99202.94;5032209;28;20285;-79
2022/01/05 05:09:57;;;;;;;6.57;1.93;;;;;;;2.65;81.76;99193.47;5026692;28;20206;-78
2022/01/05 05:12:24;;;;;;;9.77;2.07;;;;;;;2.64;80.63;99227.84;5012508;28;20234;-77
2022/01/05 05:14:51;;;;;;;10.80;2.40;;;;;;;2.55;81.89;99218.44;5012549;28;20693;-78
2022/01/05 05:17:17;;;;;;;3.47;1.60;;;;;;;2.52;81.66;99212.47;5012903;28;20676;-78
2022/01/05 05:19:44;;;;;;;6.13;2.10;;;;;;;2.57;81.15;99221.88;5012431;28;20207;-80
2022/01/05 05:22:10;;;;;;;6.50;2.00;;;;;;;2.49;81.37;99215.06;5013881;28;20716;-78
2022/01/05 05:24:36;;;;;;;10.50;1.90;;;;;;;2.52;80.88;99222.78;5016998;28;20634;-79
2022/01/05 05:27:03;;;;;;;3.63;1.40;;;;;;;2.50;81.63;99229.66;5032607;28;20225;-79
2022/01/05 05:29:31;;;;;;;4.10;1.60;;;;;;;2.45;80.98;99227.09;5031833;28;20217;-79
2022/01/05 05:34:29;;;;;;;6.50;1.90;;;;;;;2.30;81.66;99211.72;5070323;22;20234;-83
2022/01/05 05:36:56;;;;;;;8.17;1.93;;;;;;;2.28;81.75;99208.31;5054233;28;20244;-81
2022/01/05 05:39:22;;;;;;;4.30;1.60;;;;;;;2.22;82.22;99208.34;5055588;28;20555;-81
2022/01/05 05:41:50;;;;;;;8.77;1.90;;;;;;;2.31;80.09;99209.16;5055645;28;20205;-82
2022/01/05 05:44:16;;;;;;;7.23;1.67;;;;;;;2.38;80.29;99225.44;5037317;28;20272;-82
2022/01/05 05:46:44;;;;;;;4.33;1.73;;;;;;;2.29;80.36;99234.06;5034890;28;20225;-82
2022/01/05 05:49:12;;;;;;;4.70;1.73;;;;;;;2.32;79.59;99246.91;5035830;28;20206;-82
2022/01/05 05:51:40;;;;;;;6.00;1.50;;;;;;;2.26;80.29;99243.50;5036122;28;20267;-82
2022/01/05 05:54:08;;;;;;;4.13;1.80;;;;;;;2.21;79.80;99240.13;5036804;28;20222;-82
2022/01/05 05:56:34;;;;;;;4.70;1.60;;;;;;;2.18;79.93;99247.00;5037134;28;20233;-82
2022/01/05 05:59:01;;;;;;;9.33;2.93;;;;;;;2.15;80.52;99246.97;5036171;28;20233;-81
2022/01/05 06:01:28;;;;;;;8.67;1.80;;;;;;;2.11;80.48;99240.13;5035774;28;20221;-81
2022/01/05 06:03:56;;;;;;;5.70;2.30;;;;;;;2.09;81.01;99226.41;5040739;28;20226;-79
2022/01/05 06:06:22;;;;;;;9.37;2.30;;;;;;;2.12;81.18;99222.97;5034921;28;20560;-81
2022/01/05 06:08:49;;;;;;;9.40;3.50;;;;;;;2.17;80.41;99226.41;5035989;28;20206;-80
2022/01/05 06:11:15;;;;;;;5.20;2.07;;;;;;;2.15;80.15;99236.69;5035616;28;20277;-81
2022/01/05 06:13:41;;;;;;;5.27;2.43;;;;;;;2.26;79.73;99253.81;5036487;28;20252;-81
2022/01/05 06:16:08;;;;;;;6.23;2.03;;;;;;;2.25;79.62;99249.53;5036740;28;20202;-81
2022/01/05 06:18:34;;;;;;;7.53;2.43;;;;;;;2.26;79.72;99252.09;5035019;28;20209;-81
2022/01/05 06:21:02;;;;;;;4.07;2.07;;;;;;;2.27;79.40;99256.38;5035792;28;20232;-81
2022/01/05 06:23:28;;;;;;;5.40;1.87;;;;;;;2.34;79.24;99258.06;5035566;28;20226;-81
2022/01/05 06:25:54;;;;;;;5.37;2.30;;;;;;;2.39;79.24;99263.19;5036303;28;20268;-81
2022/01/05 06:28:21;;;;;;;4.33;1.73;;;;;;;2.39;79.40;99276.06;5036026;28;20202;-80
2022/01/05 06:30:48;;;;;;;5.17;1.60;;;;;;;2.27;79.78;99265.81;5035759;28;20675;-81
2022/01/05 06:33:14;;;;;;;6.30;1.90;;;;;;;2.35;79.53;99252.03;5041898;28;20264;-81
2022/01/05 06:35:41;;;;;;;14.30;2.40;;;;;;;2.31;79.69;99252.91;5036569;28;20261;-81
2022/01/05 06:38:08;;;;;;;8.17;1.97;;;;;;;2.16;79.34;99268.44;5035277;28;20202;-80
2022/01/05 06:40:37;;;;;;;4.93;2.07;;;;;;;2.13;78.72;99273.59;5036225;28;20210;-81
2022/01/05 06:43:05;;;;;;;7.10;2.30;;;;;;;2.02;79.68;99249.63;5036632;28;20318;-80
2022/01/05 06:45:31;;;;;;;2.97;2.10;;;;;;;2.05;79.51;99244.47;5035922;28;20803;-81
2022/01/05 06:47:58;;;;;;;7.73;2.97;;;;;;;2.08;80.31;99250.47;5036032;28;20283;-81
2022/01/05 06:50:25;;;;;;;5.43;2.83;;;;;;;2.13;80.56;99245.28;5035256;28;20695;-81
2022/01/05 06:52:55;;;;;;;7.87;2.40;;;;;;;2.19;80.07;99245.25;5036652;28;20226;-81
2022/01/05 06:55:23;;;;;;;4.57;2.77;;;;;;;2.10;80.14;99246.16;5036015;28;20206;-81
2022/01/05 06:57:51;;;;;;;5.67;2.90;;;;;;;2.20;80.21;99247.00;5028430;28;20203;-81
2022/01/05 07:00:18;;;;;;;4.47;2.87;;;;;;;2.13;80.54;99235.00;5016610;28;20214;-80
2022/01/05 07:02:45;;;;;;;4.53;2.83;;;;;;;2.14;80.79;99231.53;5025445;28;20237;-81
2022/01/05 07:05:11;;;;;;;8.23;3.00;;;;;;;1.99;81.30;99219.59;5040710;28;20198;-81
2022/01/05 07:07:38;;;;;;;6.40;2.70;;;;;;;2.11;81.50;99219.56;5039706;28;20272;-80
2022/01/05 07:10:06;;;;;;;6.63;2.80;;;;;;;2.08;81.47;99227.31;5039219;28;20208;-81
2022/01/05 07:12:35;;;;;;;12.43;2.40;;;;;;;2.10;81.53;99224.69;5033107;28;20226;-81
2022/01/05 07:15:02;;;;;;;4.17;2.60;;;;;;;2.15;81.20;99221.25;5038912;28;20260;-80
2022/01/05 07:17:29;;;;;;;7.20;3.30;;;;;;;2.07;81.31;99222.16;5038772;28;20275;-80
2022/01/05 07:19:57;;;;;;;5.60;3.37;;;;;;;2.14;81.58;99214.41;5038849;28;20198;-81
2022/01/05 07:22:23;;;;;;;8.63;2.40;;;;;;;2.07;81.37;99227.31;5039036;28;20219;-80
2022/01/05 07:24:50;;;;;;;8.57;2.70;;;;;;;2.11;81.35;99213.56;5036096;28;20207;-80
2022/01/05 07:27:17;;;;;;;6.57;2.50;;;;;;;2.17;80.68;99226.41;5018924;28;20262;-80
2022/01/05 07:29:45;;;;;;;6.23;2.70;;;;;;;2.11;81.51;99227.28;5019603;28;20257;-80
2022/01/05 07:32:11;;;;;;;9.70;2.60;;;;;;;2.07;81.25;99223.00;5039109;28;20640;-80
2022/01/05 07:34:38;;;;;;;10.10;3.37;;;;;;;2.07;81.62;99225.56;5044862;28;20252;-80
2022/01/05 07:37:04;;;;;;;5.47;2.60;;;;;;;2.09;81.61;99233.28;5038871;28;20236;-80
2022/01/05 07:39:32;;;;;;;6.67;2.50;;;;;;;2.02;81.44;99237.59;5037377;28;20746;-81
2022/01/05 07:41:59;;;;;;;11.97;2.40;;;;;;;1.95;81.42;99225.63;5038354;28;20294;-81
2022/01/05 07:44:26;;;;;;;9.67;2.80;;;;;;;2.00;81.14;99236.75;5038021;28;20276;-81
2022/01/05 07:46:53;;;;;;;9.20;2.80;;;;;;;2.07;81.94;99247.88;5038551;28;20280;-80
2022/01/05 07:49:20;;;;;;;6.47;2.80;;;;;;;2.17;81.02;99259.84;5038151;28;20206;-80
2022/01/05 07:51:46;;;;;;;9.00;2.90;;;;;;;2.20;81.37;99270.16;5029855;28;20203;-82
2022/01/05 07:54:12;;;;;;;5.53;2.60;;;;;;;2.20;81.06;99270.16;5029121;28;20215;-80
2022/01/05 07:56:39;;;;;;;6.63;3.07;;;;;;;2.15;81.85;99267.56;5027618;28;20229;-78
2022/01/05 07:59:05;;;;;;;12.07;2.60;;;;;;;2.14;81.57;99272.72;5025681;28;20207;-79
2022/01/05 08:01:32;;;;;;;5.07;3.30;;;;;;;2.18;81.53;99267.59;5027135;28;20723;-80
2022/01/05 08:04:00;;;;;;;6.23;3.37;;;;;;;2.25;81.13;99278.69;5029260;28;20791;-79
2022/01/05 08:06:26;;;;;;;10.23;3.57;;;;;;;2.30;81.72;99258.06;5026235;28;20203;-80
2022/01/05 08:08:52;;;;;;;12.60;3.80;;;;;;;2.22;80.83;99289.03;5026910;28;20582;-80
2022/01/05 08:11:20;;;;;;;14.83;3.97;;;;;;;2.22;81.41;99276.16;5027930;28;20198;-80
2022/01/05 08:13:47;;;;;;;8.20;3.93;;;;;;;2.25;80.92;99270.97;5026046;28;20309;-79
2022/01/05 08:16:14;;;;;;;7.30;3.87;;;;;;;2.35;81.30;99295.81;5026568;28;20581;-80
2022/01/05 08:18:42;;;;;;;6.80;3.73;;;;;;;2.39;80.14;99302.66;5028738;28;20229;-80
2022/01/05 08:21:10;;;;;;;11.33;4.10;;;;;;;2.40;80.16;99311.28;5026717;28;20203;-80
2022/01/05 08:23:37;;;;;;;5.87;3.50;;;;;;;2.43;80.28;99300.09;5029396;28;20633;-80
2022/01/05 08:26:05;;;;;;;18.37;6.60;;;;;;;2.39;81.20;99307.81;5030167;28;20200;-79
2022/01/05 08:28:32;;;;;;;12.90;4.70;;;;;;;2.39;81.24;99309.53;5028928;28;20218;-79
2022/01/05 08:30:59;;;;;;;10.27;4.47;;;;;;;2.41;81.48;99300.09;5034018;28;20206;-80
2022/01/05 08:33:26;;;;;;;9.13;5.80;;;;;;;2.41;81.02;99302.66;5035767;28;20238;-79
2022/01/05 08:35:52;;;;;;;9.93;5.63;;;;;;;2.40;80.38;99285.53;5035048;28;20204;-79
2022/01/05 08:38:20;;;;;;;9.03;5.73;;;;;;;2.46;80.96;99292.34;5036893;28;20202;-81
2022/01/05 08:40:49;;;;;;;10.57;5.80;;;;;;;2.53;80.54;99288.88;5035096;28;20680;-79
2022/01/05 08:43:15;;;;;;;9.67;5.00;;;;;;;2.52;80.14;99305.22;5036634;28;20229;-80
2022/01/05 08:45:43;;;;;;;8.73;5.67;;;;;;;2.66;80.39;99313.72;5036574;28;20206;-80
2022/01/05 08:48:10;;;;;;;10.70;5.37;;;;;;;2.72;79.48;99325.72;5033833;28;20229;-80
2022/01/05 08:50:38;;;;;;;7.03;4.77;;;;;;;2.74;79.16;99344.59;5035019;28;20198;-79
2022/01/05 08:53:05;;;;;;;7.47;5.23;;;;;;;2.79;79.20;99329.97;5035829;28;20218;-80
2022/01/05 08:55:36;;;;;;;9.97;5.03;;;;;;;2.80;78.63;99317.94;5036377;28;20190;-80
2022/01/05 08:58:03;;;;;;;7.73;5.03;;;;;;;2.88;78.77;99324.75;5036162;28;20198;-80
2022/01/05 09:00:30;;;;;;;5.77;4.97;;;;;;;2.89;78.65;99335.91;5031915;28;20194;-80
2022/01/05 09:02:57;;;;;;;9.70;5.03;;;;;;;2.86;78.85;99338.53;5033514;28;20241;-80
2022/01/05 09:05:24;;;;;;;9.90;5.37;;;;;;;2.96;79.31;99335.88;5029461;28;20202;-80
2022/01/05 09:07:50;;;;;;;5.83;5.20;;;;;;;3.14;78.63;99329.75;5024786;28;20712;-80
2022/01/05 09:10:16;;;;;;;8.13;5.43;;;;;;;3.14;77.66;99336.63;5025696;28;20836;-78
2022/01/05 09:12:44;;;;;;;8.17;4.73;;;;;;;3.17;78.49;99332.31;5034618;28;20219;-80
2022/01/05 09:15:11;;;;;;;6.57;4.63;;;;;;;3.23;77.87;99340.88;5029571;28;20253;-79
2022/01/05 09:17:38;;;;;;;7.13;5.13;;;;;;;3.17;78.43;99352.94;5024709;28;20202;-80
2022/01/05 09:20:05;;;;;;;9.30;4.50;;;;;;;3.28;78.82;99316.75;5023664;28;20206;-79
2022/01/05 09:22:33;;;;;;;10.63;4.67;;;;;;;3.28;77.43;99347.69;5027392;28;20233;-78
2022/01/05 09:25:00;;;;;;;7.53;4.60;;;;;;;3.38;78.33;99356.22;5028394;28;20207;-79
2022/01/05 09:27:26;;;;;;;7.67;4.20;;;;;;;3.36;78.17;99351.06;5027313;28;20264;-79
2022/01/05 09:29:54;;;;;;;10.13;5.10;;;;;;;3.41;78.03;99358.81;5027041;28;20206;-79
2022/01/05 09:32:20;;;;;;;8.40;4.73;;;;;;;3.20;77.40;99371.84;5030467;28;20726;-80
2022/01/05 09:34:46;;;;;;;8.80;4.63;;;;;;;3.10;77.51;99363.31;5030894;28;20641;-79
2022/01/05 09:37:20;;;;;;;7.50;4.73;;;;;;;3.20;77.88;99348.63;5029322;28;20195;-79
2022/01/05 09:42:31;;;;;;;7.90;4.90;;;;;;;3.23;78.12;99331.44;5031017;28;20221;-80
2022/01/05 09:45:00;;;;;;;8.27;4.77;;;;;;;3.17;78.09;99318.53;5033815;28;20206;-80
2022/01/05 09:47:48;;;;;;;6.30;4.20;;;;;;;3.18;78.35;99335.75;5032881;28;20218;-79
2022/01/05 09:50:15;;;;;;;9.27;4.60;;;;;;;3.18;78.49;99340.91;5032560;28;20256;-79
2022/01/05 09:52:45;;;;;;;7.27;4.87;;;;;;;3.28;78.80;99324.50;5042373;28;20778;-80
2022/01/05 09:55:13;;;;;;;10.17;5.67;;;;;;;3.21;78.46;99329.69;5046192;28;20256;-78
2022/01/05 09:57:40;;;;;;;8.53;5.40;;;;;;;3.23;78.68;99325.38;5040699;28;20198;-78
2022/01/05 10:00:11;;;;;;;7.43;4.70;;;;;;;3.26;78.65;99321.06;5034543;28;20226;-78
2022/01/05 10:02:37;;;;;;;9.07;4.83;;;;;;;3.35;78.63;99318.44;5038865;28;20243;-78
2022/01/05 10:05:05;;;;;;;7.40;4.83;;;;;;;3.38;78.92;99317.53;5038469;28;20574;-78
2022/01/05 10:07:31;;;;;;;6.80;4.80;;;;;;;3.44;79.18;99324.38;5042214;28;20304;-80
2022/01/05 10:09:58;;;;;;;8.40;5.30;;;;;;;3.30;78.76;99321.91;5026158;28;20255;-80
2022/01/05 10:12:26;;;;;;;8.93;4.97;;;;;;;3.23;79.07;99302.19;5028171;28;20234;-80
2022/01/05 10:14:53;;;;;;;6.63;5.33;;;;;;;3.32;80.10;99299.53;5026904;28;20617;-81
2022/01/05 10:17:28;;;;;;;5.67;4.77;;;;;;;3.42;79.19;99314.06;5025992;28;20248;-80
2022/01/05 10:19:58;;;;;;;10.93;4.77;;;;;;;3.52;79.37;99322.59;5025846;28;20202;-81
2022/01/05 10:22:32;;;;;;;8.50;5.00;;;;;;;3.61;79.38;99301.88;5026232;28;20260;-82
2022/01/05 10:24:59;;;;;;;5.70;5.00;;;;;;;3.69;79.01;99317.28;5029730;28;20211;-81
2022/01/05 10:27:27;;;;;;;5.70;4.90;;;;;;;3.59;79.35;99321.69;5024843;28;20220;-83
2022/01/05 10:29:57;;;;;;;6.50;4.43;;;;;;;3.54;80.52;99305.38;5025992;28;20207;-81
2022/01/05 10:32:25;;;;;;;7.77;4.83;;;;;;;3.28;82.17;99270.34;5025380;28;20199;-81
2022/01/05 10:37:58;;;;;;;7.47;5.10;;;;;;;2.94;87.48;99134.00;5034819;28;20865;-80
2022/01/05 10:40:25;;;;;;;4.07;3.77;;;;;;;2.70;88.98;99075.81;5038521;28;20260;-83
2022/01/05 10:42:54;;;;;;;5.10;4.57;;;;;;;2.73;89.51;99015.66;5038167;28;20222;-83
2022/01/05 10:45:22;;;;;;;5.63;5.10;;;;;;;2.59;89.78;98996.03;5032926;28;20253;-81
2022/01/05 10:48:04;;;;;;;5.65;5.13;;;;;;;2.71;90.75;98981.34;5031488;28;20525;-82
2022/01/05 10:50:31;;;;;;;4.97;4.50;;;;;;;2.80;90.61;98973.50;5028305;28;20257;-83
2022/01/05 10:52:58;;;;;;;5.82;5.32;;;;;;;2.41;91.03;98967.06;5029975;28;20456;-81
2022/01/05 10:55:27;;;;;;;5.47;4.23;;;;;;;2.46;92.32;98921.47;5035133;28;20738;-82
2022/01/05 10:58:00;;;;;;;4.63;3.50;;;;;;;2.69;93.16;98885.19;5029294;28;20203;-83
2022/01/05 11:00:39;;;;;;;3.53;3.23;;;;;;;2.59;91.92;98923.91;5030984;28;20207;-84
2022/01/05 11:03:35;;;;;;;4.20;3.80;;;;;;;2.49;92.00;98919.72;5032444;28;20750;-82
2022/01/05 11:06:15;;;;;;;4.13;3.23;;;;;;;2.48;92.30;98902.59;5021555;28;20575;-81
2022/01/05 11:08:50;;;;;;;4.60;4.30;;;;;;;2.65;92.37;98873.22;5030762;28;20453;-82
2022/01/05 11:11:31;;;;;;;3.57;3.37;;;;;;;2.70;91.68;98918.66;5032749;28;20189;-83
2022/01/05 11:13:57;;;;;;;3.83;3.53;;;;;;;2.59;91.70;98926.50;5028825;28;20226;-83
2022/01/05 11:16:29;;;;;;;4.30;4.00;;;;;;;2.73;92.60;98899.72;5027117;28;20195;-83
2022/01/05 11:19:16;;;;;;;4.17;3.70;;;;;;;2.86;92.47;98901.28;5027906;28;20676;-84
2022/01/05 11:21:57;;;;;;;5.17;4.67;;;;;;;2.92;92.37;98895.19;5028448;28;20206;-83
2022/01/05 11:24:25;;;;;;;6.83;4.50;;;;;;;2.74;91.95;98929.78;5027417;28;20755;-80
2022/01/05 11:26:51;;;;;;;4.27;3.87;;;;;;;2.83;92.42;98923.66;5027838;28;20198;-83
2022/01/05 11:29:24;;;;;;;4.50;4.20;;;;;;;2.85;92.87;98909.03;5030525;28;20218;-83
2022/01/05 11:31:50;;;;;;;3.47;3.27;;;;;;;2.65;92.10;98919.56;5028180;28;20685;-83
2022/01/05 11:34:21;;;;;;;4.27;3.93;;;;;;;2.53;93.07;98907.69;5062507;22;20237;-80
2022/01/05 11:36:47;;;;;;;4.20;3.90;;;;;;;2.48;93.13;98906.88;5066199;28;20219;-80
2022/01/05 11:39:13;;;;;;;3.30;3.10;;;;;;;2.29;93.30;98893.34;5065072;28;20248;-79
2022/01/05 11:41:44;;;;;;;3.10;2.90;;;;;;;2.09;93.90;98888.41;5064802;28;21527;-79
2022/01/05 11:44:11;;;;;;;5.53;5.03;;;;;;;2.14;93.59;98877.22;5066811;28;20728;-78
2022/01/05 11:46:37;;;;;;;4.07;3.50;;;;;;;1.87;94.38;98857.72;5061386;28;20197;-79
2022/01/05 11:49:07;;;;;;;4.23;3.93;;;;;;;2.01;95.46;98844.75;5055659;28;20229;-78
2022/01/05 11:51:48;;;;;;;3.90;3.60;;;;;;;2.03;94.75;98850.72;5074962;28;20200;-79
2022/01/05 11:54:17;;;;;;;3.80;3.50;;;;;;;2.04;95.38;98849.84;5079228;28;20292;-79